sensor_id;sensor_type;location;lat;lon;timestamp;temperature;humidity
3628;DHT22;1830;49.000;12.074;2023-06-10T00:00:26;18.00;99.90
3628;DHT22;1830;49.000;12.074;2023-06-10T00:02:53;17.90;99.90
3628;DHT22;1830;49.000;12.074;2023-06-10T00:05:21;17.90;99.90
3628;DHT22;1830;49.000;12.074;2023-06-10T00:07:47;17.90;99.90
3628;DHT22;1830;49.000;12.074;2023-06-10T00:10:16;17.90;99.90
3628;DHT22;1830;49.000;12.074;2023-06-10T00:12:43;17.80;99.90
3628;DHT22;1830;49.000;12.074;2023-06-10T00:15:10;17.70;99.90
3628;DHT22;1830;49.000;12.074;2023-06-10T00:17:37;17.70;99.90
3628;DHT22;1830;49.000;12.074;2023-06-10T00:20:06;17.70;99.90
3628;DHT22;1830;49.000;12.074;2023-06-10T00:22:34;17.60;99.90
3628;DHT22;1830;49.000;12.074;2023-06-10T00:25:01;17.50;99.90
3628;DHT22;1830;49.000;12.074;2023-06-10T00:27:30;17.60;99.90
3628;DHT22;1830;49.000;12.074;2023-06-10T00:30:01;17.50;99.90
3628;DHT22;1830;49.000;12.074;2023-06-10T00:32:29;17.50;99.90
3628;DHT22;1830;49.000;12.074;2023-06-10T00:34:56;17.60;99.90
3628;DHT22;1830;49.000;12.074;2023-06-10T00:37:23;17.50;99.90
3628;DHT22;1830;49.000;12.074;2023-06-10T00:39:49;17.50;99.90
3628;DHT22;1830;49.000;12.074;2023-06-10T00:42:17;17.50;99.90
3628;DHT22;1830;49.000;12.074;2023-06-10T00:44:46;17.50;99.90
3628;DHT22;1830;49.000;12.074;2023-06-10T00:47:13;17.50;99.90
3628;DHT22;1830;49.000;12.074;2023-06-10T00:49:40;17.50;99.90
3628;DHT22;1830;49.000;12.074;2023-06-10T00:52:08;17.50;99.90
3628;DHT22;1830;49.000;12.074;2023-06-10T00:54:36;17.40;99.90
3628;DHT22;1830;49.000;12.074;2023-06-10T00:57:04;17.40;99.90
3628;DHT22;1830;49.000;12.074;2023-06-10T00:59:32;17.40;99.90
3628;DHT22;1830;49.000;12.074;2023-06-10T01:02:00;17.40;99.90
3628;DHT22;1830;49.000;12.074;2023-06-10T01:04:27;17.30;99.90
3628;DHT22;1830;49.000;12.074;2023-06-10T01:07:00;17.20;99.90
3628;DHT22;1830;49.000;12.074;2023-06-10T01:09:33;17.20;99.90
3628;DHT22;1830;49.000;12.074;2023-06-10T01:12:08;17.20;99.90
3628;DHT22;1830;49.000;12.074;2023-06-10T01:14:36;17.10;99.90
3628;DHT22;1830;49.000;12.074;2023-06-10T01:17:07;17.00;99.90
3628;DHT22;1830;49.000;12.074;2023-06-10T01:19:35;17.00;99.90
3628;DHT22;1830;49.000;12.074;2023-06-10T01:22:04;16.90;99.90
3628;DHT22;1830;49.000;12.074;2023-06-10T01:24:31;16.90;99.90
3628;DHT22;1830;49.000;12.074;2023-06-10T01:27:05;16.90;99.90
3628;DHT22;1830;49.000;12.074;2023-06-10T01:29:41;16.90;99.90
3628;DHT22;1830;49.000;12.074;2023-06-10T01:32:18;16.90;99.90
3628;DHT22;1830;49.000;12.074;2023-06-10T01:34:47;16.90;99.90
3628;DHT22;1830;49.000;12.074;2023-06-10T01:37:18;16.90;99.90
3628;DHT22;1830;49.000;12.074;2023-06-10T01:39:46;16.90;99.90
3628;DHT22;1830;49.000;12.074;2023-06-10T01:42:14;16.90;99.90
3628;DHT22;1830;49.000;12.074;2023-06-10T01:44:41;16.90;99.90
3628;DHT22;1830;49.000;12.074;2023-06-10T01:47:08;16.90;99.90
3628;DHT22;1830;49.000;12.074;2023-06-10T01:49:35;16.90;99.90
3628;DHT22;1830;49.000;12.074;2023-06-10T01:52:02;16.90;99.90
3628;DHT22;1830;49.000;12.074;2023-06-10T01:54:30;16.90;99.90
3628;DHT22;1830;49.000;12.074;2023-06-10T01:56:57;16.80;99.90
3628;DHT22;1830;49.000;12.074;2023-06-10T01:59:23;16.80;99.90
3628;DHT22;1830;49.000;12.074;2023-06-10T02:01:50;16.80;99.90
3628;DHT22;1830;49.000;12.074;2023-06-10T02:04:17;16.80;99.90
3628;DHT22;1830;49.000;12.074;2023-06-10T02:06:44;16.70;99.90
3628;DHT22;1830;49.000;12.074;2023-06-10T02:09:11;16.60;99.90
3628;DHT22;1830;49.000;12.074;2023-06-10T02:11:39;16.70;99.90
3628;DHT22;1830;49.000;12.074;2023-06-10T02:14:06;16.70;99.90
3628;DHT22;1830;49.000;12.074;2023-06-10T02:16:33;16.60;99.90
3628;DHT22;1830;49.000;12.074;2023-06-10T02:19:00;16.60;99.90
3628;DHT22;1830;49.000;12.074;2023-06-10T02:21:28;16.60;99.90
3628;DHT22;1830;49.000;12.074;2023-06-10T02:23:55;16.60;99.90
3628;DHT22;1830;49.000;12.074;2023-06-10T02:26:22;16.60;99.90
3628;DHT22;1830;49.000;12.074;2023-06-10T02:28:52;16.50;99.90
3628;DHT22;1830;49.000;12.074;2023-06-10T02:31:19;16.50;99.90
3628;DHT22;1830;49.000;12.074;2023-06-10T02:33:46;16.40;99.90
3628;DHT22;1830;49.000;12.074;2023-06-10T02:36:13;16.40;99.90
3628;DHT22;1830;49.000;12.074;2023-06-10T02:38:41;16.40;99.90
3628;DHT22;1830;49.000;12.074;2023-06-10T02:41:07;16.30;99.90
3628;DHT22;1830;49.000;12.074;2023-06-10T02:43:34;16.30;99.90
3628;DHT22;1830;49.000;12.074;2023-06-10T02:46:02;16.20;99.90
3628;DHT22;1830;49.000;12.074;2023-06-10T02:48:29;16.20;99.90
3628;DHT22;1830;49.000;12.074;2023-06-10T02:50:56;16.00;99.90
3628;DHT22;1830;49.000;12.074;2023-06-10T02:53:23;16.00;99.90
3628;DHT22;1830;49.000;12.074;2023-06-10T02:55:49;16.00;99.90
3628;DHT22;1830;49.000;12.074;2023-06-10T02:58:16;16.00;99.90
3628;DHT22;1830;49.000;12.074;2023-06-10T03:00:43;15.90;99.90
3628;DHT22;1830;49.000;12.074;2023-06-10T03:03:11;15.90;99.90
3628;DHT22;1830;49.000;12.074;2023-06-10T03:05:38;15.90;99.90
3628;DHT22;1830;49.000;12.074;2023-06-10T03:08:05;15.80;99.90
3628;DHT22;1830;49.000;12.074;2023-06-10T03:10:32;15.80;99.90
3628;DHT22;1830;49.000;12.074;2023-06-10T03:12:59;15.70;99.90
3628;DHT22;1830;49.000;12.074;2023-06-10T03:15:26;15.70;99.90
3628;DHT22;1830;49.000;12.074;2023-06-10T03:17:54;15.60;99.90
3628;DHT22;1830;49.000;12.074;2023-06-10T03:20:22;15.60;99.90
3628;DHT22;1830;49.000;12.074;2023-06-10T03:22:49;15.70;99.90
3628;DHT22;1830;49.000;12.074;2023-06-10T03:25:15;15.60;99.90
3628;DHT22;1830;49.000;12.074;2023-06-10T03:27:42;15.60;99.90
3628;DHT22;1830;49.000;12.074;2023-06-10T03:30:10;15.60;99.90
3628;DHT22;1830;49.000;12.074;2023-06-10T03:32:37;15.60;99.90
3628;DHT22;1830;49.000;12.074;2023-06-10T03:35:05;15.60;99.90
3628;DHT22;1830;49.000;12.074;2023-06-10T03:37:33;15.50;99.90
3628;DHT22;1830;49.000;12.074;2023-06-10T03:40:00;15.50;99.90
3628;DHT22;1830;49.000;12.074;2023-06-10T03:42:28;15.50;99.90
3628;DHT22;1830;49.000;12.074;2023-06-10T03:44:55;15.70;99.90
3628;DHT22;1830;49.000;12.074;2023-06-10T03:47:22;15.70;99.90
3628;DHT22;1830;49.000;12.074;2023-06-10T03:49:49;15.70;99.90
3628;DHT22;1830;49.000;12.074;2023-06-10T03:52:16;15.70;99.90
3628;DHT22;1830;49.000;12.074;2023-06-10T03:54:44;15.70;99.90
3628;DHT22;1830;49.000;12.074;2023-06-10T03:57:11;15.70;99.90
3628;DHT22;1830;49.000;12.074;2023-06-10T03:59:37;15.70;99.90
3628;DHT22;1830;49.000;12.074;2023-06-10T04:02:04;15.70;99.90
3628;DHT22;1830;49.000;12.074;2023-06-10T04:04:32;15.70;99.90
3628;DHT22;1830;49.000;12.074;2023-06-10T04:06:59;15.70;99.90
3628;DHT22;1830;49.000;12.074;2023-06-10T04:09:25;15.70;99.90
3628;DHT22;1830;49.000;12.074;2023-06-10T04:11:53;15.70;99.90
3628;DHT22;1830;49.000;12.074;2023-06-10T04:14:20;15.80;99.90
3628;DHT22;1830;49.000;12.074;2023-06-10T04:16:47;15.80;99.90
3628;DHT22;1830;49.000;12.074;2023-06-10T04:19:14;15.80;99.90
3628;DHT22;1830;49.000;12.074;2023-06-10T04:21:40;15.80;99.90
3628;DHT22;1830;49.000;12.074;2023-06-10T04:24:07;15.80;99.90
3628;DHT22;1830;49.000;12.074;2023-06-10T04:26:35;15.80;99.90
3628;DHT22;1830;49.000;12.074;2023-06-10T04:29:03;15.80;99.90
3628;DHT22;1830;49.000;12.074;2023-06-10T04:31:30;15.80;99.90
3628;DHT22;1830;49.000;12.074;2023-06-10T04:33:57;15.90;99.90
3628;DHT22;1830;49.000;12.074;2023-06-10T04:36:26;15.90;99.90
3628;DHT22;1830;49.000;12.074;2023-06-10T04:38:55;16.00;99.90
3628;DHT22;1830;49.000;12.074;2023-06-10T04:41:22;16.10;99.90
3628;DHT22;1830;49.000;12.074;2023-06-10T04:43:48;16.10;99.90
3628;DHT22;1830;49.000;12.074;2023-06-10T04:46:17;16.20;99.90
3628;DHT22;1830;49.000;12.074;2023-06-10T04:48:43;16.20;99.90
3628;DHT22;1830;49.000;12.074;2023-06-10T04:51:12;16.30;99.90
3628;DHT22;1830;49.000;12.074;2023-06-10T04:53:39;16.30;99.90
3628;DHT22;1830;49.000;12.074;2023-06-10T04:56:06;16.30;99.90
3628;DHT22;1830;49.000;12.074;2023-06-10T04:58:34;16.40;99.90
3628;DHT22;1830;49.000;12.074;2023-06-10T05:01:01;16.50;99.90
3628;DHT22;1830;49.000;12.074;2023-06-10T05:03:29;16.50;99.90
3628;DHT22;1830;49.000;12.074;2023-06-10T05:05:56;16.60;99.90
3628;DHT22;1830;49.000;12.074;2023-06-10T05:08:23;16.60;99.90
3628;DHT22;1830;49.000;12.074;2023-06-10T05:10:50;16.70;99.90
3628;DHT22;1830;49.000;12.074;2023-06-10T05:13:17;16.70;99.90
3628;DHT22;1830;49.000;12.074;2023-06-10T05:15:43;16.80;99.90
3628;DHT22;1830;49.000;12.074;2023-06-10T05:18:11;16.80;99.90
3628;DHT22;1830;49.000;12.074;2023-06-10T05:20:40;16.90;99.90
3628;DHT22;1830;49.000;12.074;2023-06-10T05:23:07;16.90;99.90
3628;DHT22;1830;49.000;12.074;2023-06-10T05:25:33;17.00;99.90
3628;DHT22;1830;49.000;12.074;2023-06-10T05:28:00;17.00;99.90
3628;DHT22;1830;49.000;12.074;2023-06-10T05:30:27;17.00;99.90
3628;DHT22;1830;49.000;12.074;2023-06-10T05:32:54;17.10;99.90
3628;DHT22;1830;49.000;12.074;2023-06-10T05:35:21;17.10;99.90
3628;DHT22;1830;49.000;12.074;2023-06-10T05:37:50;17.20;99.90
3628;DHT22;1830;49.000;12.074;2023-06-10T05:40:17;17.30;99.90
3628;DHT22;1830;49.000;12.074;2023-06-10T05:42:45;17.30;99.90
3628;DHT22;1830;49.000;12.074;2023-06-10T05:45:12;17.40;99.90
3628;DHT22;1830;49.000;12.074;2023-06-10T05:47:39;17.40;99.90
3628;DHT22;1830;49.000;12.074;2023-06-10T05:50:06;17.50;99.90
3628;DHT22;1830;49.000;12.074;2023-06-10T05:52:34;17.50;99.90
3628;DHT22;1830;49.000;12.074;2023-06-10T05:55:02;17.60;99.90
3628;DHT22;1830;49.000;12.074;2023-06-10T05:57:29;17.60;99.90
3628;DHT22;1830;49.000;12.074;2023-06-10T05:59:56;17.70;99.90
3628;DHT22;1830;49.000;12.074;2023-06-10T06:02:23;17.70;99.90
3628;DHT22;1830;49.000;12.074;2023-06-10T06:04:50;17.70;99.90
3628;DHT22;1830;49.000;12.074;2023-06-10T06:07:16;17.70;99.90
3628;DHT22;1830;49.000;12.074;2023-06-10T06:09:46;17.80;99.90
3628;DHT22;1830;49.000;12.074;2023-06-10T06:12:14;17.80;99.90
3628;DHT22;1830;49.000;12.074;2023-06-10T06:14:41;17.80;99.90
3628;DHT22;1830;49.000;12.074;2023-06-10T06:17:07;17.90;99.90
3628;DHT22;1830;49.000;12.074;2023-06-10T06:19:34;17.90;99.90
3628;DHT22;1830;49.000;12.074;2023-06-10T06:22:01;18.00;99.90
3628;DHT22;1830;49.000;12.074;2023-06-10T06:24:28;18.00;99.90
3628;DHT22;1830;49.000;12.074;2023-06-10T06:26:54;18.00;99.90
3628;DHT22;1830;49.000;12.074;2023-06-10T06:29:23;18.10;99.90
3628;DHT22;1830;49.000;12.074;2023-06-10T06:31:49;18.20;99.90
3628;DHT22;1830;49.000;12.074;2023-06-10T06:34:16;18.20;99.90
3628;DHT22;1830;49.000;12.074;2023-06-10T06:36:43;18.20;99.90
3628;DHT22;1830;49.000;12.074;2023-06-10T06:39:10;18.30;99.90
3628;DHT22;1830;49.000;12.074;2023-06-10T06:41:36;18.30;99.90
3628;DHT22;1830;49.000;12.074;2023-06-10T06:44:03;18.40;99.90
3628;DHT22;1830;49.000;12.074;2023-06-10T06:46:32;18.50;99.90
3628;DHT22;1830;49.000;12.074;2023-06-10T06:48:58;18.50;99.90
3628;DHT22;1830;49.000;12.074;2023-06-10T06:51:25;18.60;99.90
3628;DHT22;1830;49.000;12.074;2023-06-10T06:53:52;18.70;99.90
3628;DHT22;1830;49.000;12.074;2023-06-10T06:56:22;18.70;99.90
3628;DHT22;1830;49.000;12.074;2023-06-10T06:58:49;18.80;99.90
3628;DHT22;1830;49.000;12.074;2023-06-10T07:01:17;18.90;99.90
3628;DHT22;1830;49.000;12.074;2023-06-10T07:03:46;19.00;99.90
3628;DHT22;1830;49.000;12.074;2023-06-10T07:06:13;19.10;99.90
3628;DHT22;1830;49.000;12.074;2023-06-10T07:08:41;19.00;99.90
3628;DHT22;1830;49.000;12.074;2023-06-10T07:11:08;19.00;99.90
3628;DHT22;1830;49.000;12.074;2023-06-10T07:13:35;19.20;99.90
3628;DHT22;1830;49.000;12.074;2023-06-10T07:16:02;19.20;99.90
3628;DHT22;1830;49.000;12.074;2023-06-10T07:18:28;19.20;99.90
3628;DHT22;1830;49.000;12.074;2023-06-10T07:20:57;19.30;99.90
3628;DHT22;1830;49.000;12.074;2023-06-10T07:23:23;19.40;99.90
3628;DHT22;1830;49.000;12.074;2023-06-10T07:25:50;19.40;99.90
3628;DHT22;1830;49.000;12.074;2023-06-10T07:28:17;19.40;99.90
3628;DHT22;1830;49.000;12.074;2023-06-10T07:30:44;19.50;99.90
3628;DHT22;1830;49.000;12.074;2023-06-10T07:33:10;19.60;99.90
3628;DHT22;1830;49.000;12.074;2023-06-10T07:35:37;19.60;99.90
3628;DHT22;1830;49.000;12.074;2023-06-10T07:38:05;19.50;99.90
3628;DHT22;1830;49.000;12.074;2023-06-10T07:40:32;19.70;99.90
3628;DHT22;1830;49.000;12.074;2023-06-10T07:42:59;19.80;99.90
3628;DHT22;1830;49.000;12.074;2023-06-10T07:45:26;20.00;99.90
3628;DHT22;1830;49.000;12.074;2023-06-10T07:47:52;20.10;99.90
3628;DHT22;1830;49.000;12.074;2023-06-10T07:50:20;20.20;99.90
3628;DHT22;1830;49.000;12.074;2023-06-10T07:52:47;20.10;99.90
3628;DHT22;1830;49.000;12.074;2023-06-10T07:55:15;20.20;99.90
3628;DHT22;1830;49.000;12.074;2023-06-10T07:57:42;20.30;99.90
3628;DHT22;1830;49.000;12.074;2023-06-10T08:00:09;20.30;99.90
3628;DHT22;1830;49.000;12.074;2023-06-10T08:02:36;20.20;99.90
3628;DHT22;1830;49.000;12.074;2023-06-10T08:05:03;20.20;99.90
3628;DHT22;1830;49.000;12.074;2023-06-10T08:07:30;20.10;99.90
3628;DHT22;1830;49.000;12.074;2023-06-10T08:09:57;20.20;99.90
3628;DHT22;1830;49.000;12.074;2023-06-10T08:12:25;20.40;99.90
3628;DHT22;1830;49.000;12.074;2023-06-10T08:14:52;20.40;99.90
3628;DHT22;1830;49.000;12.074;2023-06-10T08:17:20;20.30;99.90
3628;DHT22;1830;49.000;12.074;2023-06-10T08:19:47;20.20;99.90
3628;DHT22;1830;49.000;12.074;2023-06-10T08:22:14;20.20;99.90
3628;DHT22;1830;49.000;12.074;2023-06-10T08:24:41;20.30;99.90
3628;DHT22;1830;49.000;12.074;2023-06-10T08:27:08;20.50;99.90
3628;DHT22;1830;49.000;12.074;2023-06-10T08:29:37;20.70;99.90
3628;DHT22;1830;49.000;12.074;2023-06-10T08:32:04;20.80;99.90
3628;DHT22;1830;49.000;12.074;2023-06-10T08:34:33;20.70;99.90
3628;DHT22;1830;49.000;12.074;2023-06-10T08:37:00;20.60;99.90
3628;DHT22;1830;49.000;12.074;2023-06-10T08:39:27;20.60;99.90
3628;DHT22;1830;49.000;12.074;2023-06-10T08:42:06;20.50;99.90
3628;DHT22;1830;49.000;12.074;2023-06-10T08:44:38;20.60;99.90
3628;DHT22;1830;49.000;12.074;2023-06-10T08:47:11;20.70;99.90
3628;DHT22;1830;49.000;12.074;2023-06-10T08:49:42;20.80;99.90
3628;DHT22;1830;49.000;12.074;2023-06-10T08:52:13;20.80;99.90
3628;DHT22;1830;49.000;12.074;2023-06-10T08:54:43;20.90;99.90
3628;DHT22;1830;49.000;12.074;2023-06-10T08:57:12;20.90;99.90
3628;DHT22;1830;49.000;12.074;2023-06-10T08:59:41;20.90;99.90
3628;DHT22;1830;49.000;12.074;2023-06-10T09:02:08;20.90;99.90
3628;DHT22;1830;49.000;12.074;2023-06-10T09:04:36;21.00;99.90
3628;DHT22;1830;49.000;12.074;2023-06-10T09:07:04;21.00;99.90
3628;DHT22;1830;49.000;12.074;2023-06-10T09:09:32;21.10;99.90
3628;DHT22;1830;49.000;12.074;2023-06-10T09:12:01;21.10;99.90
3628;DHT22;1830;49.000;12.074;2023-06-10T09:14:28;21.40;99.90
3628;DHT22;1830;49.000;12.074;2023-06-10T09:16:57;21.60;99.90
3628;DHT22;1830;49.000;12.074;2023-06-10T09:19:23;21.70;99.90
3628;DHT22;1830;49.000;12.074;2023-06-10T09:21:51;21.70;99.90
3628;DHT22;1830;49.000;12.074;2023-06-10T09:24:18;21.90;99.90
3628;DHT22;1830;49.000;12.074;2023-06-10T09:26:45;22.00;99.90
3628;DHT22;1830;49.000;12.074;2023-06-10T09:29:12;22.20;99.90
3628;DHT22;1830;49.000;12.074;2023-06-10T09:31:39;22.20;99.90
3628;DHT22;1830;49.000;12.074;2023-06-10T09:34:11;22.20;99.90
3628;DHT22;1830;49.000;12.074;2023-06-10T09:36:39;22.30;99.90
3628;DHT22;1830;49.000;12.074;2023-06-10T09:39:13;22.30;99.90
3628;DHT22;1830;49.000;12.074;2023-06-10T09:41:41;22.40;99.90
3628;DHT22;1830;49.000;12.074;2023-06-10T09:44:12;22.40;99.90
3628;DHT22;1830;49.000;12.074;2023-06-10T09:46:39;22.40;99.90
3628;DHT22;1830;49.000;12.074;2023-06-10T09:49:06;22.40;99.90
3628;DHT22;1830;49.000;12.074;2023-06-10T09:51:34;22.40;99.90
3628;DHT22;1830;49.000;12.074;2023-06-10T09:54:02;22.40;99.90
3628;DHT22;1830;49.000;12.074;2023-06-10T09:56:36;22.40;99.90
3628;DHT22;1830;49.000;12.074;2023-06-10T09:59:03;22.40;99.90
3628;DHT22;1830;49.000;12.074;2023-06-10T10:01:32;22.40;99.90
3628;DHT22;1830;49.000;12.074;2023-06-10T10:03:59;22.50;99.90
3628;DHT22;1830;49.000;12.074;2023-06-10T10:06:27;22.60;99.90
3628;DHT22;1830;49.000;12.074;2023-06-10T10:08:56;22.40;99.90
3628;DHT22;1830;49.000;12.074;2023-06-10T10:11:23;22.40;99.90
3628;DHT22;1830;49.000;12.074;2023-06-10T10:13:52;22.20;99.90
3628;DHT22;1830;49.000;12.074;2023-06-10T10:16:29;22.10;99.90
3628;DHT22;1830;49.000;12.074;2023-06-10T10:19:04;22.00;99.90
3628;DHT22;1830;49.000;12.074;2023-06-10T10:21:34;21.90;99.90
3628;DHT22;1830;49.000;12.074;2023-06-10T10:24:09;21.80;99.90
3628;DHT22;1830;49.000;12.074;2023-06-10T10:26:39;21.70;99.90
3628;DHT22;1830;49.000;12.074;2023-06-10T10:29:13;21.60;99.90
3628;DHT22;1830;49.000;12.074;2023-06-10T10:31:42;21.40;99.90
3628;DHT22;1830;49.000;12.074;2023-06-10T10:34:15;21.30;99.90
3628;DHT22;1830;49.000;12.074;2023-06-10T10:36:43;21.30;99.90
3628;DHT22;1830;49.000;12.074;2023-06-10T10:39:12;21.40;99.90
3628;DHT22;1830;49.000;12.074;2023-06-10T10:41:39;21.40;99.90
3628;DHT22;1830;49.000;12.074;2023-06-10T10:44:07;21.50;99.90
3628;DHT22;1830;49.000;12.074;2023-06-10T10:46:42;21.50;99.90
3628;DHT22;1830;49.000;12.074;2023-06-10T10:49:11;21.60;99.90
3628;DHT22;1830;49.000;12.074;2023-06-10T10:51:54;21.80;99.90
3628;DHT22;1830;49.000;12.074;2023-06-10T10:54:28;21.90;99.90
3628;DHT22;1830;49.000;12.074;2023-06-10T10:57:16;21.90;99.90
3628;DHT22;1830;49.000;12.074;2023-06-10T10:59:44;22.00;99.90
3628;DHT22;1830;49.000;12.074;2023-06-10T11:02:15;21.80;99.90
3628;DHT22;1830;49.000;12.074;2023-06-10T11:04:45;21.70;99.90
3628;DHT22;1830;49.000;12.074;2023-06-10T11:07:13;21.70;99.90
3628;DHT22;1830;49.000;12.074;2023-06-10T11:09:57;21.70;99.90
3628;DHT22;1830;49.000;12.074;2023-06-10T11:12:25;21.80;99.90
3628;DHT22;1830;49.000;12.074;2023-06-10T11:14:54;21.90;99.90
3628;DHT22;1830;49.000;12.074;2023-06-10T11:17:22;22.00;99.90
3628;DHT22;1830;49.000;12.074;2023-06-10T11:19:49;22.50;99.90
3628;DHT22;1830;49.000;12.074;2023-06-10T11:22:17;22.90;99.90
3628;DHT22;1830;49.000;12.074;2023-06-10T11:24:50;23.10;99.90
3628;DHT22;1830;49.000;12.074;2023-06-10T11:27:18;23.00;99.90
3628;DHT22;1830;49.000;12.074;2023-06-10T11:30:18;23.10;99.90
3628;DHT22;1830;49.000;12.074;2023-06-10T11:32:50;23.30;99.90
3628;DHT22;1830;49.000;12.074;2023-06-10T11:35:19;23.30;99.90
3628;DHT22;1830;49.000;12.074;2023-06-10T11:37:47;23.20;99.90
3628;DHT22;1830;49.000;12.074;2023-06-10T11:40:16;23.10;99.90
3628;DHT22;1830;49.000;12.074;2023-06-10T11:42:43;23.00;99.90
3628;DHT22;1830;49.000;12.074;2023-06-10T11:45:14;22.90;99.90
3628;DHT22;1830;49.000;12.074;2023-06-10T11:47:55;22.70;99.90
3628;DHT22;1830;49.000;12.074;2023-06-10T11:50:28;22.40;99.90
3628;DHT22;1830;49.000;12.074;2023-06-10T11:52:55;22.00;99.90
3628;DHT22;1830;49.000;12.074;2023-06-10T11:55:25;21.90;99.90
3628;DHT22;1830;49.000;12.074;2023-06-10T11:57:52;21.80;99.90
3628;DHT22;1830;49.000;12.074;2023-06-10T12:00:23;21.70;99.90
3628;DHT22;1830;49.000;12.074;2023-06-10T12:02:55;21.80;99.90
3628;DHT22;1830;49.000;12.074;2023-06-10T12:05:23;21.90;99.90
3628;DHT22;1830;49.000;12.074;2023-06-10T12:08:05;22.20;99.90
3628;DHT22;1830;49.000;12.074;2023-06-10T12:10:39;22.20;99.90
3628;DHT22;1830;49.000;12.074;2023-06-10T12:13:06;22.30;99.90
3628;DHT22;1830;49.000;12.074;2023-06-10T12:15:33;22.20;99.90
3628;DHT22;1830;49.000;12.074;2023-06-10T12:18:00;22.30;99.90
3628;DHT22;1830;49.000;12.074;2023-06-10T12:20:28;22.40;99.90
3628;DHT22;1830;49.000;12.074;2023-06-10T12:22:57;22.80;99.90
3628;DHT22;1830;49.000;12.074;2023-06-10T12:25:28;23.30;99.90
3628;DHT22;1830;49.000;12.074;2023-06-10T12:27:59;23.60;99.90
3628;DHT22;1830;49.000;12.074;2023-06-10T12:30:27;24.00;99.90
3628;DHT22;1830;49.000;12.074;2023-06-10T12:32:54;23.80;99.90
3628;DHT22;1830;49.000;12.074;2023-06-10T12:35:23;24.10;99.90
3628;DHT22;1830;49.000;12.074;2023-06-10T12:37:58;24.50;99.90
3628;DHT22;1830;49.000;12.074;2023-06-10T12:40:26;24.80;99.90
3628;DHT22;1830;49.000;12.074;2023-06-10T12:42:56;25.10;99.90
3628;DHT22;1830;49.000;12.074;2023-06-10T12:45:27;24.80;99.90
3628;DHT22;1830;49.000;12.074;2023-06-10T12:48:04;25.10;99.90
3628;DHT22;1830;49.000;12.074;2023-06-10T12:50:32;25.30;99.90
3628;DHT22;1830;49.000;12.074;2023-06-10T12:52:59;25.30;98.60
3628;DHT22;1830;49.000;12.074;2023-06-10T12:55:26;25.20;98.70
3628;DHT22;1830;49.000;12.074;2023-06-10T12:57:53;24.90;99.80
3628;DHT22;1830;49.000;12.074;2023-06-10T13:00:21;25.30;99.90
3628;DHT22;1830;49.000;12.074;2023-06-10T13:02:51;25.40;98.50
3628;DHT22;1830;49.000;12.074;2023-06-10T13:05:18;25.70;98.30
3628;DHT22;1830;49.000;12.074;2023-06-10T13:07:45;25.80;97.40
3628;DHT22;1830;49.000;12.074;2023-06-10T13:10:12;26.00;96.50
3628;DHT22;1830;49.000;12.074;2023-06-10T13:12:40;26.10;95.90
3628;DHT22;1830;49.000;12.074;2023-06-10T13:15:07;26.30;95.60
3628;DHT22;1830;49.000;12.074;2023-06-10T13:17:36;26.40;94.90
3628;DHT22;1830;49.000;12.074;2023-06-10T13:20:03;26.50;94.60
3628;DHT22;1830;49.000;12.074;2023-06-10T13:22:30;26.80;94.30
3628;DHT22;1830;49.000;12.074;2023-06-10T13:24:58;26.50;93.60
3628;DHT22;1830;49.000;12.074;2023-06-10T13:27:25;26.60;93.80
3628;DHT22;1830;49.000;12.074;2023-06-10T13:29:52;26.40;93.30
3628;DHT22;1830;49.000;12.074;2023-06-10T13:32:19;26.20;94.30
3628;DHT22;1830;49.000;12.074;2023-06-10T13:34:47;25.70;97.90
3628;DHT22;1830;49.000;12.074;2023-06-10T13:37:15;25.30;99.90
3628;DHT22;1830;49.000;12.074;2023-06-10T13:39:42;24.90;99.90
3628;DHT22;1830;49.000;12.074;2023-06-10T13:42:09;24.40;99.90
3628;DHT22;1830;49.000;12.074;2023-06-10T13:44:36;24.30;99.90
3628;DHT22;1830;49.000;12.074;2023-06-10T13:47:03;24.20;99.90
3628;DHT22;1830;49.000;12.074;2023-06-10T13:49:30;24.40;99.90
3628;DHT22;1830;49.000;12.074;2023-06-10T13:51:58;24.40;99.90
3628;DHT22;1830;49.000;12.074;2023-06-10T13:54:25;24.30;99.90
3628;DHT22;1830;49.000;12.074;2023-06-10T13:56:52;24.00;99.90
3628;DHT22;1830;49.000;12.074;2023-06-10T13:59:19;24.20;99.90
3628;DHT22;1830;49.000;12.074;2023-06-10T14:01:46;24.00;99.90
3628;DHT22;1830;49.000;12.074;2023-06-10T14:04:13;23.70;99.90
3628;DHT22;1830;49.000;12.074;2023-06-10T14:06:40;23.30;99.90
3628;DHT22;1830;49.000;12.074;2023-06-10T14:09:08;23.10;99.90
3628;DHT22;1830;49.000;12.074;2023-06-10T14:11:35;22.90;99.90
3628;DHT22;1830;49.000;12.074;2023-06-10T14:14:02;22.80;99.90
3628;DHT22;1830;49.000;12.074;2023-06-10T14:16:29;22.60;99.90
3628;DHT22;1830;49.000;12.074;2023-06-10T14:18:56;22.60;99.90
3628;DHT22;1830;49.000;12.074;2023-06-10T14:21:22;22.50;99.90
3628;DHT22;1830;49.000;12.074;2023-06-10T14:23:49;22.50;99.90
3628;DHT22;1830;49.000;12.074;2023-06-10T14:26:19;22.30;99.90
3628;DHT22;1830;49.000;12.074;2023-06-10T14:28:47;22.30;99.90
3628;DHT22;1830;49.000;12.074;2023-06-10T14:31:14;22.20;99.90
3628;DHT22;1830;49.000;12.074;2023-06-10T14:33:41;22.20;99.90
3628;DHT22;1830;49.000;12.074;2023-06-10T14:36:09;22.10;99.90
3628;DHT22;1830;49.000;12.074;2023-06-10T14:38:36;22.00;99.90
3628;DHT22;1830;49.000;12.074;2023-06-10T14:41:03;21.90;99.90
3628;DHT22;1830;49.000;12.074;2023-06-10T14:43:31;21.80;99.90
3628;DHT22;1830;49.000;12.074;2023-06-10T14:45:57;21.70;99.90
3628;DHT22;1830;49.000;12.074;2023-06-10T14:48:24;21.60;99.90
3628;DHT22;1830;49.000;12.074;2023-06-10T14:50:51;21.60;99.90
3628;DHT22;1830;49.000;12.074;2023-06-10T14:53:20;21.60;99.90
3628;DHT22;1830;49.000;12.074;2023-06-10T14:55:47;21.60;99.90
3628;DHT22;1830;49.000;12.074;2023-06-10T14:58:14;21.70;99.90
3628;DHT22;1830;49.000;12.074;2023-06-10T15:00:42;21.70;99.90
3628;DHT22;1830;49.000;12.074;2023-06-10T15:03:09;21.80;99.90
3628;DHT22;1830;49.000;12.074;2023-06-10T15:05:36;21.90;99.90
3628;DHT22;1830;49.000;12.074;2023-06-10T15:08:03;21.90;99.90
3628;DHT22;1830;49.000;12.074;2023-06-10T15:10:30;22.00;99.90
3628;DHT22;1830;49.000;12.074;2023-06-10T15:12:57;22.20;99.90
3628;DHT22;1830;49.000;12.074;2023-06-10T15:15:24;22.20;99.90
3628;DHT22;1830;49.000;12.074;2023-06-10T15:17:53;22.40;99.90
3628;DHT22;1830;49.000;12.074;2023-06-10T15:20:21;22.50;99.90
3628;DHT22;1830;49.000;12.074;2023-06-10T15:22:47;22.60;99.90
3628;DHT22;1830;49.000;12.074;2023-06-10T15:25:14;22.70;99.90
3628;DHT22;1830;49.000;12.074;2023-06-10T15:27:41;22.70;99.90
3628;DHT22;1830;49.000;12.074;2023-06-10T15:30:08;22.70;99.90
3628;DHT22;1830;49.000;12.074;2023-06-10T15:32:35;22.70;99.90
3628;DHT22;1830;49.000;12.074;2023-06-10T15:35:04;22.80;99.90
3628;DHT22;1830;49.000;12.074;2023-06-10T15:37:31;22.70;99.90
3628;DHT22;1830;49.000;12.074;2023-06-10T15:39:58;22.70;99.90
3628;DHT22;1830;49.000;12.074;2023-06-10T15:42:25;22.40;99.90
3628;DHT22;1830;49.000;12.074;2023-06-10T15:44:51;22.50;99.90
3628;DHT22;1830;49.000;12.074;2023-06-10T15:47:19;22.50;99.90
3628;DHT22;1830;49.000;12.074;2023-06-10T15:49:46;22.50;99.90